createdAt,value
2019-05-17T00:00:10.828Z,9.699402
2019-05-17T00:01:09.908Z,9.699402
2019-05-17T00:02:09.956Z,9.699402
2019-05-17T00:03:10.035Z,9.699402
2019-05-17T00:04:10.086Z,9.669189
2019-05-17T00:05:10.172Z,9.659119
2019-05-17T00:06:10.218Z,9.659119
2019-05-17T00:07:10.326Z,9.669189
2019-05-17T00:08:10.411Z,9.669189
2019-05-17T00:09:11.435Z,9.659119
2019-05-17T00:10:10.497Z,9.669189
2019-05-17T00:11:10.558Z,9.659119
2019-05-17T00:12:10.614Z,9.659119
2019-05-17T00:13:14.117Z,9.659119
2019-05-17T00:14:10.819Z,9.669189
2019-05-17T00:15:10.865Z,9.669189
2019-05-17T00:16:10.969Z,9.659119
2019-05-17T00:17:11.038Z,9.659119
2019-05-17T00:18:11.146Z,9.638977
2019-05-17T00:19:12.193Z,9.628906
2019-05-17T00:20:11.240Z,9.628906
2019-05-17T00:21:11.289Z,9.628906
2019-05-17T00:22:11.363Z,9.618835
2019-05-17T00:23:11.452Z,9.628906
2019-05-17T00:24:11.493Z,9.618835
2019-05-17T00:25:12.547Z,9.618835
2019-05-17T00:26:12.603Z,9.618835
2019-05-17T00:27:12.703Z,9.618835
2019-05-17T00:28:12.817Z,9.618835
2019-05-17T00:29:12.871Z,9.588623
2019-05-17T00:30:11.970Z,9.618835
2019-05-17T00:31:13.024Z,9.618835
2019-05-17T00:32:12.066Z,9.588623
2019-05-17T00:33:12.146Z,9.628906
2019-05-17T00:34:13.178Z,9.588623
2019-05-17T00:35:13.230Z,9.618835
2019-05-17T00:36:13.273Z,9.578552
2019-05-17T00:37:13.319Z,9.588623
2019-05-17T00:38:12.393Z,9.588623
2019-05-17T00:39:12.438Z,9.578552
2019-05-17T00:40:12.506Z,9.578552
2019-05-17T00:41:12.585Z,9.54834
2019-05-17T00:42:13.650Z,9.538269
2019-05-17T00:43:12.763Z,9.518127
2019-05-17T00:45:12.974Z,9.538269
2019-05-17T00:46:14.010Z,9.518127
2019-05-17T00:47:13.049Z,9.538269
2019-05-17T00:48:14.137Z,9.538269
2019-05-17T00:49:13.203Z,9.518127
2019-05-17T00:50:13.265Z,9.508057
2019-05-17T00:51:16.539Z,9.508057
2019-05-17T00:52:13.389Z,9.477844
2019-05-17T00:53:16.342Z,9.477844
2019-05-17T00:54:13.486Z,9.477844
2019-05-17T00:55:14.527Z,9.477844
2019-05-17T00:56:13.566Z,9.467773
2019-05-17T00:57:13.613Z,9.467773
2019-05-17T00:58:16.969Z,9.467773
2019-05-17T00:59:13.770Z,9.487915
2019-05-17T01:00:13.833Z,9.487915
2019-05-17T01:01:16.453Z,9.477844
2019-05-17T01:02:16.152Z,9.467773
2019-05-17T01:03:16.134Z,9.477844
2019-05-17T01:04:14.078Z,9.477844
2019-05-17T01:05:17.029Z,9.447632
2019-05-17T01:06:14.167Z,9.437561
2019-05-17T01:07:14.229Z,9.437561
2019-05-17T01:08:14.267Z,9.437561
2019-05-17T01:09:16.799Z,9.447632
2019-05-17T01:10:16.496Z,9.437561
2019-05-17T01:11:16.433Z,9.417419
2019-05-17T01:12:16.406Z,9.397278
2019-05-17T01:13:14.519Z,9.387207
2019-05-17T01:14:14.591Z,9.387207
2019-05-17T01:15:16.669Z,9.397278
2019-05-17T01:16:16.583Z,9.397278
2019-05-17T01:17:16.505Z,9.417419
2019-05-17T01:18:16.222Z,9.397278
2019-05-17T01:19:16.354Z,9.417419
2019-05-17T01:20:17.136Z,9.417419
2019-05-17T01:21:16.810Z,9.437561
2019-05-17T01:22:16.837Z,9.437561
2019-05-17T01:23:16.607Z,9.437561
2019-05-17T01:24:17.193Z,9.447632
2019-05-17T01:25:17.053Z,9.437561
2019-05-17T01:26:15.228Z,9.417419
2019-05-17T01:27:17.182Z,9.437561
2019-05-17T01:28:16.364Z,9.437561
2019-05-17T01:29:17.442Z,9.437561
2019-05-17T01:30:17.427Z,9.417419
2019-05-17T01:31:17.201Z,9.397278
2019-05-17T01:32:17.161Z,9.397278
2019-05-17T01:33:17.064Z,9.417419
2019-05-17T01:34:16.594Z,9.417419
2019-05-17T01:35:16.687Z,9.417419
2019-05-17T01:36:17.284Z,9.397278
2019-05-17T01:37:17.120Z,9.387207
2019-05-17T01:38:17.674Z,9.367065
2019-05-17T01:39:20.522Z,9.356995
2019-05-17T01:40:17.512Z,9.336853
2019-05-17T01:41:17.317Z,9.367065
2019-05-17T01:42:17.146Z,9.387207
2019-05-17T01:43:16.615Z,9.387207
2019-05-17T01:44:16.771Z,9.397278
2019-05-17T01:45:16.757Z,9.397278
2019-05-17T01:46:17.144Z,9.387207
2019-05-17T01:47:16.729Z,9.397278
2019-05-17T01:48:16.553Z,9.387207
2019-05-17T01:49:16.648Z,9.367065
2019-05-17T01:50:17.433Z,9.367065
2019-05-17T01:51:16.992Z,9.367065
2019-05-17T01:52:16.932Z,9.367065
2019-05-17T01:53:16.806Z,9.387207
2019-05-17T01:54:17.485Z,9.387207
2019-05-17T01:55:17.472Z,9.367065
2019-05-17T01:56:17.128Z,9.367065
2019-05-17T01:57:17.083Z,9.397278
2019-05-17T01:58:17.120Z,9.397278
2019-05-17T01:59:17.451Z,9.417419
2019-05-17T02:00:17.741Z,9.397278
2019-05-17T02:01:17.388Z,9.417419
2019-05-17T02:02:17.463Z,9.417419
2019-05-17T02:03:17.535Z,9.397278
2019-05-17T02:04:17.583Z,9.397278
2019-05-17T02:05:17.685Z,9.397278
2019-05-17T02:06:17.734Z,9.397278
2019-05-17T02:07:18.804Z,9.417419
2019-05-17T02:08:17.858Z,9.417419
2019-05-17T02:09:33.655Z,9.397278
2019-05-17T02:10:17.985Z,9.387207
2019-05-17T02:11:18.504Z,9.397278
2019-05-17T02:12:18.093Z,9.387207
2019-05-17T02:13:18.132Z,9.397278
2019-05-17T02:14:18.181Z,9.387207
2019-05-17T02:15:18.278Z,9.367065
2019-05-17T02:16:18.335Z,9.356995
2019-05-17T02:17:18.387Z,9.336853
2019-05-17T02:18:18.448Z,9.336853
2019-05-17T02:19:18.498Z,9.336853
2019-05-17T02:20:18.580Z,9.326782
2019-05-17T02:21:18.655Z,9.326782
2019-05-17T02:22:18.717Z,9.326782
2019-05-17T02:23:18.756Z,9.336853
2019-05-17T02:24:18.796Z,9.326782
2019-05-17T02:25:18.855Z,9.336853
2019-05-17T02:26:18.929Z,9.306641
2019-05-17T02:27:21.398Z,9.326782
2019-05-17T02:28:21.376Z,9.326782
2019-05-17T02:29:21.356Z,9.306641
2019-05-17T02:30:22.966Z,9.29657
2019-05-17T02:31:19.180Z,9.266357
2019-05-17T02:32:23.304Z,9.286499
2019-05-17T02:33:23.345Z,9.256287
2019-05-17T02:34:19.293Z,9.256287
2019-05-17T02:35:22.945Z,9.216003
2019-05-17T02:36:22.819Z,9.185791
2019-05-17T02:37:22.895Z,9.17572
2019-05-17T02:38:22.402Z,9.17572
2019-05-17T02:39:22.938Z,9.155579
2019-05-17T02:40:22.508Z,9.145508
2019-05-17T02:41:22.676Z,9.125366
2019-05-17T02:42:22.395Z,9.105225
2019-05-17T02:43:23.334Z,9.105225
2019-05-17T02:44:19.796Z,9.085083
2019-05-17T02:45:23.361Z,9.085083
2019-05-17T02:46:23.003Z,9.075012
2019-05-17T02:47:22.930Z,9.054871
2019-05-17T02:48:23.207Z,9.034729
2019-05-17T02:49:19.975Z,9.034729
2019-05-17T02:50:23.046Z,9.054871
2019-05-17T02:51:23.413Z,9.034729
2019-05-17T02:52:22.860Z,9.024658
2019-05-17T02:53:22.923Z,9.004517
2019-05-17T02:54:23.437Z,9.024658
2019-05-17T02:55:23.065Z,9.024658
2019-05-17T02:56:22.916Z,8.974304
2019-05-17T02:57:23.219Z,8.974304
2019-05-17T02:58:23.272Z,8.964233
2019-05-17T02:59:23.038Z,8.964233
2019-05-17T03:00:23.634Z,8.934021
2019-05-17T03:01:23.038Z,8.92395
2019-05-17T03:02:24.282Z,8.903809
2019-05-17T03:03:23.633Z,8.873596
2019-05-17T03:04:23.355Z,8.873596
2019-05-17T03:05:23.214Z,8.823242
2019-05-17T03:06:22.722Z,8.813171
2019-05-17T03:07:23.140Z,8.79303
2019-05-17T03:08:23.387Z,8.782959
2019-05-17T03:09:22.839Z,8.752747
2019-05-17T03:10:24.838Z,8.722534
2019-05-17T03:11:22.598Z,8.692322
2019-05-17T03:12:23.564Z,8.641968
2019-05-17T03:13:23.354Z,8.631897
2019-05-17T03:14:22.920Z,8.601685
2019-05-17T03:15:23.304Z,8.601685
2019-05-17T03:16:23.555Z,8.571472
2019-05-17T03:17:22.908Z,8.54126
2019-05-17T03:18:22.820Z,8.521118
2019-05-17T03:19:23.505Z,8.500977
2019-05-17T03:20:23.161Z,8.450623
2019-05-17T03:21:22.876Z,8.42041
2019-05-17T03:22:23.036Z,8.410339
2019-05-17T03:23:23.365Z,8.359985
2019-05-17T03:24:22.593Z,8.349915
2019-05-17T03:25:23.798Z,8.319702
2019-05-17T03:26:22.981Z,8.319702
2019-05-17T03:27:23.234Z,8.309631
2019-05-17T03:28:23.455Z,8.279419
2019-05-17T03:29:22.635Z,8.269348
2019-05-17T03:30:25.744Z,8.259277
2019-05-17T03:31:26.165Z,8.259277
2019-05-17T03:32:26.342Z,8.229065
2019-05-17T03:33:26.381Z,8.198853
2019-05-17T03:34:26.255Z,8.178711
2019-05-17T03:35:26.321Z,8.16864
2019-05-17T03:36:25.881Z,8.158569
2019-05-17T03:37:27.986Z,8.158569
2019-05-17T03:38:23.115Z,8.158569
2019-05-17T03:39:22.746Z,8.108215
2019-05-17T03:40:36.171Z,8.088074
2019-05-17T03:41:28.583Z,8.078003
2019-05-17T03:42:22.683Z,8.078003
2019-05-17T03:43:22.772Z,8.057861
2019-05-17T03:44:22.624Z,8.047791
2019-05-17T03:45:22.902Z,8.047791
2019-05-17T03:46:23.326Z,8.047791
2019-05-17T03:47:22.839Z,8.027649
2019-05-17T03:48:22.814Z,8.047791
2019-05-17T03:49:22.893Z,8.057861
2019-05-17T03:50:22.965Z,8.057861
2019-05-17T03:51:23.455Z,8.078003
2019-05-17T03:52:23.164Z,8.088074
2019-05-17T03:53:23.290Z,8.088074
2019-05-17T03:54:23.383Z,8.108215
2019-05-17T03:55:23.711Z,8.138428
2019-05-17T03:56:23.512Z,8.128357
2019-05-17T03:57:24.146Z,8.138428
2019-05-17T03:58:23.753Z,8.158569
2019-05-17T03:59:24.327Z,8.16864
2019-05-17T04:00:23.716Z,8.178711
2019-05-17T04:01:23.726Z,8.198853
2019-05-17T04:02:23.719Z,8.229065
2019-05-17T04:03:23.796Z,8.259277
2019-05-17T04:04:23.810Z,8.269348
2019-05-17T04:05:23.794Z,8.279419
2019-05-17T04:06:24.122Z,8.319702
2019-05-17T04:07:23.869Z,8.319702
2019-05-17T04:08:23.814Z,8.339844
2019-05-17T04:09:23.862Z,8.349915
2019-05-17T04:10:23.869Z,8.359985
2019-05-17T04:11:31.282Z,8.380127
2019-05-17T04:12:24.198Z,8.410339
2019-05-17T04:13:24.255Z,8.42041
2019-05-17T04:14:24.327Z,8.440552
2019-05-17T04:15:24.398Z,8.490906
2019-05-17T04:16:24.371Z,8.500977
2019-05-17T04:17:24.365Z,8.500977
2019-05-17T04:18:24.394Z,8.531189
2019-05-17T04:19:24.480Z,8.571472
2019-05-17T04:20:24.478Z,8.601685
2019-05-17T04:21:24.457Z,8.631897
2019-05-17T04:22:24.448Z,8.641968
2019-05-17T04:23:24.506Z,8.712463
2019-05-17T04:24:24.526Z,8.742676
2019-05-17T04:25:24.541Z,8.772888
2019-05-17T04:26:24.702Z,8.782959
2019-05-17T04:27:24.857Z,8.79303
2019-05-17T04:28:24.853Z,8.813171
2019-05-17T04:29:24.892Z,8.863525
2019-05-17T04:30:24.890Z,8.873596
2019-05-17T04:31:24.892Z,8.903809
2019-05-17T04:32:25.028Z,8.954163
2019-05-17T04:33:25.057Z,8.954163
2019-05-17T04:34:25.128Z,8.974304
2019-05-17T04:35:25.162Z,8.994446
2019-05-17T04:36:25.147Z,9.004517
2019-05-17T04:37:25.153Z,9.024658
2019-05-17T04:38:25.316Z,9.054871
2019-05-17T04:39:25.340Z,9.105225
2019-05-17T04:40:25.338Z,9.115295
2019-05-17T04:41:39.178Z,9.125366
2019-05-17T04:42:26.507Z,9.155579
2019-05-17T04:43:25.473Z,9.17572
2019-05-17T04:44:25.507Z,9.205933
2019-05-17T04:45:25.508Z,9.205933
2019-05-17T04:46:25.499Z,9.256287
2019-05-17T04:47:25.658Z,9.286499
2019-05-17T04:48:25.673Z,9.29657
2019-05-17T04:49:25.739Z,9.326782
2019-05-17T04:50:25.725Z,9.336853
2019-05-17T04:51:25.720Z,9.336853
2019-05-17T04:52:25.754Z,9.367065
2019-05-17T04:53:25.747Z,9.397278
2019-05-17T04:54:25.828Z,9.397278
2019-05-17T04:55:25.827Z,9.437561
2019-05-17T04:56:25.813Z,9.447632
2019-05-17T04:57:25.858Z,9.508057
2019-05-17T04:58:25.898Z,9.538269
2019-05-17T04:59:25.935Z,9.54834
2019-05-17T05:00:26.937Z,9.558411
2019-05-17T05:01:25.927Z,9.618835
2019-05-17T05:02:25.922Z,9.588623
2019-05-17T05:03:26.090Z,9.628906
2019-05-17T05:04:26.127Z,9.659119
2019-05-17T05:05:26.148Z,9.659119
2019-05-17T05:06:26.153Z,9.689331
2019-05-17T05:07:26.185Z,9.719543
2019-05-17T05:08:26.172Z,9.689331
2019-05-17T05:09:26.182Z,9.699402
2019-05-17T05:10:26.214Z,9.719543
2019-05-17T05:11:26.236Z,9.729614
2019-05-17T05:12:26.235Z,9.729614
2019-05-17T05:13:26.219Z,9.769897
2019-05-17T05:14:26.229Z,9.80011
2019-05-17T05:15:26.314Z,9.810181
2019-05-17T05:16:26.346Z,9.840393
2019-05-17T05:17:26.372Z,9.850464
2019-05-17T05:18:26.394Z,9.850464
2019-05-17T05:19:26.392Z,9.880676
2019-05-17T05:20:26.411Z,9.900818
2019-05-17T05:21:26.463Z,9.920959
2019-05-17T05:22:26.513Z,9.920959
2019-05-17T05:23:26.534Z,9.920959
2019-05-17T05:24:26.553Z,9.951172
2019-05-17T05:25:26.582Z,9.971313
2019-05-17T05:26:26.651Z,10.001526
2019-05-17T05:27:26.641Z,10.021667
2019-05-17T05:28:26.677Z,10.031738
2019-05-17T05:29:26.691Z,10.072021
2019-05-17T05:30:26.722Z,10.102234
2019-05-17T05:31:26.769Z,10.102234
2019-05-17T05:32:26.776Z,10.132446
2019-05-17T05:33:26.802Z,10.152588
2019-05-17T05:34:26.848Z,10.152588
2019-05-17T05:35:26.890Z,10.172729
2019-05-17T05:36:26.968Z,10.202942
2019-05-17T05:37:27.001Z,10.213013
2019-05-17T05:38:27.031Z,10.233154
2019-05-17T05:39:27.075Z,10.243225
2019-05-17T05:40:27.110Z,10.253296
2019-05-17T05:41:27.142Z,10.283508
2019-05-17T05:42:27.136Z,10.313721
2019-05-17T05:43:27.137Z,10.30365
2019-05-17T05:44:27.136Z,10.313721
2019-05-17T05:45:27.228Z,10.343933
2019-05-17T05:46:27.312Z,10.364075
2019-05-17T05:47:27.315Z,10.394287
2019-05-17T05:48:27.328Z,10.4245
2019-05-17T05:49:27.338Z,10.464783
2019-05-17T05:50:27.347Z,10.494995
2019-05-17T05:51:27.418Z,10.505066
2019-05-17T05:52:27.451Z,10.494995
2019-05-17T05:53:27.469Z,10.494995
2019-05-17T05:54:27.462Z,10.505066
2019-05-17T05:55:27.471Z,10.545349
2019-05-17T05:56:27.498Z,10.605774
2019-05-17T05:57:27.488Z,10.635986
2019-05-17T05:58:28.638Z,10.646057
2019-05-17T05:59:27.788Z,10.666199
2019-05-17T06:00:27.937Z,10.67627
2019-05-17T06:01:28.115Z,10.68634
2019-05-17T06:02:28.128Z,10.746765
2019-05-17T06:03:28.141Z,10.716553
2019-05-17T06:04:28.131Z,10.706482
2019-05-17T06:05:28.160Z,10.746765
2019-05-17T06:06:29.311Z,10.797119
2019-05-17T06:07:28.372Z,10.837402
2019-05-17T06:08:28.371Z,10.93811
2019-05-17T06:09:28.399Z,10.978394
2019-05-17T06:10:28.389Z,11.018677
2019-05-17T06:11:28.534Z,11.048889
2019-05-17T06:12:28.717Z,11.079102
2019-05-17T06:13:28.711Z,11.119385
2019-05-17T06:14:28.730Z,11.099243
2019-05-17T06:15:28.719Z,11.129456
2019-05-17T06:16:28.716Z,11.18988
2019-05-17T06:17:28.772Z,11.230164
2019-05-17T06:18:28.774Z,11.300659
2019-05-17T06:19:28.769Z,11.300659
2019-05-17T06:20:28.789Z,11.330872
2019-05-17T06:21:28.796Z,11.340942
2019-05-17T06:22:28.815Z,11.371155
2019-05-17T06:23:28.804Z,11.401367
2019-05-17T06:24:31.797Z,11.371155
2019-05-17T06:25:28.959Z,11.371155
2019-05-17T06:26:31.494Z,11.43158
2019-05-17T06:27:29.132Z,11.481934
2019-05-17T06:28:31.693Z,11.532288
2019-05-17T06:29:29.188Z,11.602783
2019-05-17T06:30:29.226Z,11.622925
2019-05-17T06:31:29.235Z,11.622925
2019-05-17T06:32:31.609Z,11.632996
2019-05-17T06:33:31.744Z,11.592712
2019-05-17T06:34:29.519Z,11.532288
2019-05-17T06:35:29.527Z,11.492004
2019-05-17T06:36:29.532Z,11.371155
2019-05-17T06:37:31.727Z,11.340942
2019-05-17T06:38:29.745Z,11.371155
2019-05-17T06:39:29.742Z,11.43158
2019-05-17T06:40:32.161Z,11.532288
2019-05-17T06:41:31.941Z,11.602783
2019-05-17T06:42:40.241Z,11.653137
2019-05-17T06:43:32.214Z,11.743774
2019-05-17T06:44:32.437Z,11.81427
2019-05-17T06:45:32.455Z,11.864624
2019-05-17T06:46:32.439Z,11.81427
2019-05-17T06:47:32.477Z,11.854553
2019-05-17T06:48:31.763Z,11.914978
2019-05-17T06:49:31.771Z,11.955261
2019-05-17T06:50:32.567Z,12.045898
2019-05-17T06:51:31.592Z,12.106323
2019-05-17T06:52:32.489Z,12.136536
2019-05-17T06:53:32.299Z,12.207031
2019-05-17T06:54:32.925Z,12.207031
2019-05-17T06:55:31.429Z,12.287598
2019-05-17T06:56:32.176Z,12.348022
2019-05-17T06:57:32.486Z,12.398376
2019-05-17T06:58:31.499Z,12.478943
2019-05-17T06:59:30.754Z,12.509155
2019-05-17T07:00:30.753Z,12.529297
2019-05-17T07:01:30.786Z,12.539368
2019-05-17T07:02:30.996Z,12.630005
2019-05-17T07:03:31.059Z,12.650146
2019-05-17T07:04:31.066Z,12.720642
2019-05-17T07:05:31.088Z,12.69043
2019-05-17T07:06:31.118Z,12.630005
2019-05-17T07:07:31.111Z,12.630005
2019-05-17T07:08:31.117Z,12.619934
2019-05-17T07:09:31.299Z,12.630005
2019-05-17T07:10:31.141Z,12.660217
2019-05-17T07:11:31.142Z,12.680359
2019-05-17T07:12:31.156Z,12.619934
2019-05-17T07:13:31.194Z,12.549438
2019-05-17T07:14:31.147Z,12.56958
2019-05-17T07:15:43.609Z,12.549438
2019-05-17T07:16:31.289Z,12.539368
2019-05-17T07:17:31.339Z,12.549438
2019-05-17T07:18:31.323Z,12.44873
2019-05-17T07:19:31.386Z,12.327881
2019-05-17T07:20:31.423Z,12.247314
2019-05-17T07:21:31.431Z,12.227173
2019-05-17T07:22:31.440Z,12.247314
2019-05-17T07:23:31.475Z,12.207031
2019-05-17T07:24:31.516Z,12.176819
2019-05-17T07:25:31.572Z,12.166748
2019-05-17T07:26:31.567Z,12.166748
2019-05-17T07:27:41.219Z,12.166748
2019-05-17T07:28:31.720Z,12.176819
2019-05-17T07:29:31.741Z,12.227173
2019-05-17T07:30:31.797Z,12.227173
2019-05-17T07:31:31.798Z,12.166748
2019-05-17T07:32:31.792Z,12.166748
2019-05-17T07:33:31.835Z,12.247314
2019-05-17T07:34:31.874Z,12.358093
2019-05-17T07:35:31.904Z,12.388306
2019-05-17T07:36:31.904Z,12.468872
2019-05-17T07:37:31.902Z,12.468872
2019-05-17T07:38:31.922Z,12.478943
2019-05-17T07:39:31.921Z,12.468872
2019-05-17T07:40:31.944Z,12.44873
2019-05-17T07:41:31.958Z,12.44873
2019-05-17T07:42:31.968Z,12.428589
2019-05-17T07:43:31.964Z,12.388306
2019-05-17T07:44:31.987Z,12.358093
2019-05-17T07:45:31.966Z,12.368164
2019-05-17T07:46:32.055Z,12.368164
2019-05-17T07:47:32.066Z,12.398376
2019-05-17T07:48:32.068Z,12.428589
2019-05-17T07:49:32.065Z,12.44873
2019-05-17T07:50:32.113Z,12.44873
2019-05-17T07:51:32.161Z,12.43866
2019-05-17T07:52:32.238Z,12.44873
2019-05-17T07:53:32.270Z,12.428589
2019-05-17T07:54:32.278Z,12.398376
2019-05-17T07:55:32.321Z,12.348022
2019-05-17T07:56:32.378Z,12.257385
2019-05-17T07:57:33.411Z,12.207031
2019-05-17T07:58:32.421Z,12.227173
2019-05-17T07:59:32.444Z,12.176819
2019-05-17T08:00:32.513Z,12.166748
2019-05-17T08:01:32.552Z,12.136536
2019-05-17T08:02:32.556Z,12.116394
2019-05-17T08:03:32.725Z,12.106323
2019-05-17T08:04:32.748Z,12.136536
2019-05-17T08:05:32.742Z,12.166748
2019-05-17T08:06:32.947Z,12.227173
2019-05-17T08:07:32.955Z,12.247314
2019-05-17T08:08:33.098Z,12.247314
2019-05-17T08:09:33.109Z,12.227173
2019-05-17T08:10:33.128Z,12.257385
2019-05-17T08:11:34.276Z,12.287598
2019-05-17T08:12:33.301Z,12.31781
2019-05-17T08:13:33.831Z,12.358093
2019-05-17T08:14:33.699Z,12.428589
2019-05-17T08:15:33.362Z,12.499084
2019-05-17T08:16:33.379Z,12.388306
2019-05-17T08:17:33.367Z,12.358093
2019-05-17T08:18:33.364Z,12.388306
2019-05-17T08:19:33.367Z,12.398376
2019-05-17T08:20:33.383Z,12.428589
2019-05-17T08:21:33.442Z,12.43866
2019-05-17T08:22:33.482Z,12.44873
2019-05-17T08:23:33.558Z,12.44873
2019-05-17T08:24:33.644Z,12.398376
2019-05-17T08:25:33.697Z,12.368164
2019-05-17T08:26:34.782Z,12.31781
2019-05-17T08:27:33.802Z,12.136536
2019-05-17T08:29:29.790Z,11.995544
2019-05-17T08:30:30.206Z,12.045898
2019-05-17T08:31:29.591Z,12.015686
2019-05-17T08:32:31.529Z,12.015686
2019-05-17T08:33:29.829Z,12.045898
2019-05-17T08:34:29.372Z,12.096252
2019-05-17T08:35:30.395Z,12.116394
2019-05-17T08:36:29.896Z,12.146606
2019-05-17T08:37:30.131Z,12.207031
2019-05-17T08:38:30.490Z,12.277527
2019-05-17T08:39:30.202Z,12.297668
2019-05-17T08:40:30.499Z,12.287598
2019-05-17T08:41:30.880Z,12.297668
2019-05-17T08:42:29.949Z,12.348022
2019-05-17T08:43:39.269Z,12.297668
2019-05-17T08:44:29.863Z,12.358093
2019-05-17T08:45:29.631Z,12.388306
2019-05-17T08:46:30.488Z,12.358093
2019-05-17T08:47:30.006Z,12.398376
2019-05-17T08:48:29.604Z,12.428589
2019-05-17T08:49:29.657Z,12.43866
2019-05-17T08:50:29.606Z,12.348022
2019-05-17T08:51:30.453Z,12.348022
2019-05-17T08:52:29.830Z,12.358093
2019-05-17T08:53:30.472Z,12.368164
2019-05-17T08:54:30.402Z,12.428589
2019-05-17T08:55:29.991Z,12.468872
2019-05-17T08:56:30.844Z,12.529297
2019-05-17T08:57:30.338Z,12.609863
2019-05-17T08:58:29.906Z,12.650146
2019-05-17T08:59:30.050Z,12.680359
2019-05-17T09:00:31.335Z,12.750854
2019-05-17T09:01:30.273Z,12.781067
2019-05-17T09:02:30.230Z,12.841492
2019-05-17T09:03:30.536Z,12.861633
2019-05-17T09:04:30.250Z,12.881775
2019-05-17T09:05:30.404Z,12.881775
2019-05-17T09:06:30.403Z,12.9422
2019-05-17T09:07:30.418Z,12.982483
2019-05-17T09:08:30.454Z,12.9422
2019-05-17T09:09:31.423Z,12.932129
2019-05-17T09:10:30.466Z,12.952271
2019-05-17T09:11:30.504Z,12.982483
2019-05-17T09:12:30.590Z,12.911987
2019-05-17T09:13:30.656Z,12.841492
2019-05-17T09:14:30.664Z,12.831421
2019-05-17T09:15:30.682Z,12.901917
2019-05-17T09:16:30.904Z,12.952271
2019-05-17T09:17:30.683Z,12.992554
2019-05-17T09:18:30.720Z,13.063049
2019-05-17T09:19:30.736Z,13.163757
2019-05-17T09:20:30.771Z,13.244324
2019-05-17T09:21:31.456Z,13.334961
2019-05-17T09:22:30.796Z,13.385315
2019-05-17T09:23:30.819Z,13.334961
2019-05-17T09:24:30.829Z,13.314819
2019-05-17T09:25:30.839Z,13.304749
2019-05-17T09:26:30.864Z,13.163757
2019-05-17T09:27:30.863Z,13.083191
2019-05-17T09:28:30.905Z,13.052979
2019-05-17T09:29:30.911Z,13.032837
2019-05-17T09:30:31.440Z,12.982483
2019-05-17T09:31:30.907Z,12.911987
2019-05-17T09:32:30.912Z,12.861633
2019-05-17T09:33:30.974Z,12.871704
2019-05-17T09:34:30.988Z,12.861633
2019-05-17T09:35:31.150Z,12.811279
2019-05-17T09:36:32.160Z,12.750854
2019-05-17T09:37:31.193Z,12.730713
2019-05-17T09:38:31.218Z,12.720642
2019-05-17T09:39:31.215Z,12.720642
2019-05-17T09:40:31.232Z,12.7005
2019-05-17T09:41:31.392Z,12.750854
2019-05-17T09:42:31.388Z,12.760925
2019-05-17T09:43:31.449Z,12.811279
2019-05-17T09:44:31.453Z,12.831421
2019-05-17T09:45:31.462Z,12.841492
2019-05-17T09:46:31.503Z,12.861633
2019-05-17T09:47:31.544Z,12.901917
2019-05-17T09:48:31.588Z,12.841492
2019-05-17T09:49:31.672Z,12.811279
2019-05-17T09:50:31.675Z,12.811279
2019-05-17T09:51:31.683Z,12.801208
2019-05-17T09:52:31.687Z,12.730713
2019-05-17T09:53:31.721Z,12.730713
2019-05-17T09:54:41.332Z,12.801208
2019-05-17T09:55:31.885Z,12.760925
2019-05-17T09:56:32.047Z,12.781067
2019-05-17T09:57:32.047Z,12.841492
2019-05-17T09:58:32.089Z,12.932129
2019-05-17T09:59:32.127Z,12.982483
2019-05-17T10:00:32.185Z,13.052979
2019-05-17T10:01:32.195Z,13.133545
2019-05-17T10:02:32.196Z,13.214111
2019-05-17T10:03:32.200Z,13.264465
2019-05-17T10:04:32.225Z,13.314819
2019-05-17T10:05:32.220Z,13.334961
2019-05-17T10:06:33.375Z,13.415527
2019-05-17T10:07:32.378Z,13.425598
2019-05-17T10:08:32.389Z,13.465881
2019-05-17T10:09:32.432Z,13.536377
2019-05-17T10:10:32.448Z,13.566589
2019-05-17T10:11:32.475Z,13.566589
2019-05-17T10:12:32.469Z,13.546448
2019-05-17T10:13:33.627Z,13.606873
2019-05-17T10:14:32.672Z,13.69751
2019-05-17T10:15:32.693Z,13.69751
2019-05-17T10:16:32.696Z,13.747864
2019-05-17T10:17:32.711Z,13.788147
2019-05-17T10:18:32.712Z,13.868713
2019-05-17T10:19:32.734Z,13.778076
2019-05-17T10:20:32.754Z,13.747864
2019-05-17T10:21:32.751Z,13.747864
2019-05-17T10:22:32.757Z,13.677368
2019-05-17T10:23:32.750Z,13.69751
2019-05-17T10:24:37.813Z,13.69751
2019-05-17T10:25:32.762Z,13.69751
2019-05-17T10:26:32.754Z,13.707581
2019-05-17T10:27:32.756Z,13.677368
2019-05-17T10:28:32.750Z,13.667297
2019-05-17T10:29:32.750Z,13.667297
2019-05-17T10:30:32.829Z,13.637085
2019-05-17T10:31:32.837Z,13.707581
2019-05-17T10:32:32.855Z,13.747864
2019-05-17T10:33:32.851Z,13.707581
2019-05-17T10:34:32.875Z,13.69751
2019-05-17T10:35:32.920Z,13.677368
2019-05-17T10:36:32.922Z,13.667297
2019-05-17T10:37:32.907Z,13.637085
2019-05-17T10:38:32.924Z,13.616943
2019-05-17T10:39:32.942Z,13.647156
2019-05-17T10:40:32.959Z,13.707581
2019-05-17T10:41:32.954Z,13.778076
2019-05-17T10:42:32.953Z,13.727722
2019-05-17T10:43:32.955Z,13.637085
2019-05-17T10:44:44.166Z,13.57666
2019-05-17T10:45:33.123Z,13.546448
2019-05-17T10:46:33.124Z,13.536377
2019-05-17T10:47:33.126Z,13.516235
2019-05-17T10:48:33.126Z,13.536377
2019-05-17T10:49:33.125Z,13.546448
2019-05-17T10:50:33.201Z,13.546448
2019-05-17T10:51:33.208Z,13.57666
2019-05-17T10:52:33.220Z,13.57666
2019-05-17T10:53:33.370Z,13.616943
2019-05-17T10:54:33.385Z,13.677368
2019-05-17T10:55:33.422Z,13.757935
2019-05-17T10:56:33.444Z,13.848572
2019-05-17T10:57:33.466Z,13.868713
2019-05-17T10:58:33.483Z,13.929138
2019-05-17T10:59:33.545Z,13.979492
2019-05-17T11:00:33.585Z,13.999634
2019-05-17T11:01:33.608Z,13.999634
2019-05-17T11:02:33.623Z,14.009705
2019-05-17T11:03:33.631Z,13.999634
2019-05-17T11:04:33.624Z,13.999634
2019-05-17T11:05:33.671Z,14.070129
2019-05-17T11:06:33.755Z,14.130554
2019-05-17T11:07:33.759Z,14.150696
2019-05-17T11:08:33.767Z,14.180908
2019-05-17T11:09:33.769Z,14.180908
2019-05-17T11:10:33.793Z,14.20105
2019-05-17T11:11:33.853Z,14.281616
2019-05-17T11:12:33.873Z,14.362183
2019-05-17T11:13:33.884Z,14.432678
2019-05-17T11:14:33.888Z,14.45282
2019-05-17T11:15:34.010Z,14.442749
2019-05-17T11:16:34.083Z,14.402466
2019-05-17T11:17:34.079Z,14.311829
2019-05-17T11:18:34.075Z,14.301758
2019-05-17T11:19:34.097Z,14.372253
2019-05-17T11:20:34.123Z,14.362183
2019-05-17T11:21:34.205Z,14.372253
2019-05-17T11:22:34.236Z,14.45282
2019-05-17T11:23:34.252Z,14.493103
2019-05-17T11:24:34.292Z,14.483032
2019-05-17T11:25:34.314Z,14.513245
2019-05-17T11:26:34.374Z,14.533386
2019-05-17T11:27:34.402Z,14.593811
2019-05-17T11:28:34.406Z,14.664307
2019-05-17T11:29:34.432Z,14.613953
2019-05-17T11:30:34.455Z,14.533386
2019-05-17T11:31:34.543Z,14.513245
2019-05-17T11:32:34.583Z,14.523315
2019-05-17T11:33:34.617Z,14.58374
2019-05-17T11:34:34.655Z,14.593811
2019-05-17T11:35:34.706Z,14.674377
2019-05-17T11:36:34.738Z,14.734802
2019-05-17T11:37:34.743Z,14.744873